sensor_id;sensor_type;location;lat;lon;timestamp;temperature;humidity
19000;DHT22;9633;50.980;13.850;2022-12-24T00:01:32;10.40;99.90
19000;DHT22;9633;50.980;13.850;2022-12-24T00:03:06;10.60;99.90
19000;DHT22;9633;50.980;13.850;2022-12-24T00:04:39;10.60;99.90
19000;DHT22;9633;50.980;13.850;2022-12-24T00:06:16;10.60;99.90
19000;DHT22;9633;50.980;13.850;2022-12-24T00:07:49;10.60;99.90
19000;DHT22;9633;50.980;13.850;2022-12-24T00:09:22;10.60;99.90
19000;DHT22;9633;50.980;13.850;2022-12-24T00:10:55;10.60;99.90
19000;DHT22;9633;50.980;13.850;2022-12-24T00:12:29;10.70;99.90
19000;DHT22;9633;50.980;13.850;2022-12-24T00:14:02;10.70;99.90
19000;DHT22;9633;50.980;13.850;2022-12-24T00:15:35;10.80;99.90
19000;DHT22;9633;50.980;13.850;2022-12-24T00:17:08;10.80;99.90
19000;DHT22;9633;50.980;13.850;2022-12-24T00:18:41;10.90;99.90
19000;DHT22;9633;50.980;13.850;2022-12-24T00:20:17;10.90;99.90
19000;DHT22;9633;50.980;13.850;2022-12-24T00:21:50;10.90;99.90
19000;DHT22;9633;50.980;13.850;2022-12-24T00:23:24;10.80;99.90
19000;DHT22;9633;50.980;13.850;2022-12-24T00:24:57;10.90;99.90
19000;DHT22;9633;50.980;13.850;2022-12-24T00:26:30;10.90;99.90
19000;DHT22;9633;50.980;13.850;2022-12-24T00:28:03;10.90;99.90
19000;DHT22;9633;50.980;13.850;2022-12-24T00:29:35;11.00;99.90
19000;DHT22;9633;50.980;13.850;2022-12-24T00:31:10;11.10;99.90
19000;DHT22;9633;50.980;13.850;2022-12-24T00:32:45;11.20;99.90
19000;DHT22;9633;50.980;13.850;2022-12-24T00:34:21;11.20;99.90
19000;DHT22;9633;50.980;13.850;2022-12-24T00:35:54;11.10;99.90
19000;DHT22;9633;50.980;13.850;2022-12-24T00:37:26;11.10;99.90
19000;DHT22;9633;50.980;13.850;2022-12-24T00:38:59;11.10;99.90
19000;DHT22;9633;50.980;13.850;2022-12-24T00:40:32;11.10;99.90
19000;DHT22;9633;50.980;13.850;2022-12-24T00:42:05;11.10;99.90
19000;DHT22;9633;50.980;13.850;2022-12-24T00:43:38;11.10;99.90
19000;DHT22;9633;50.980;13.850;2022-12-24T00:45:10;11.10;99.90
19000;DHT22;9633;50.980;13.850;2022-12-24T00:46:44;11.20;99.90
19000;DHT22;9633;50.980;13.850;2022-12-24T00:48:18;11.10;99.90
19000;DHT22;9633;50.980;13.850;2022-12-24T00:49:53;11.10;99.90
19000;DHT22;9633;50.980;13.850;2022-12-24T00:51:27;11.10;99.90
19000;DHT22;9633;50.980;13.850;2022-12-24T00:53:00;11.10;99.90
19000;DHT22;9633;50.980;13.850;2022-12-24T00:54:33;11.00;99.90
19000;DHT22;9633;50.980;13.850;2022-12-24T00:56:07;11.00;99.90
19000;DHT22;9633;50.980;13.850;2022-12-24T00:57:39;10.90;99.90
19000;DHT22;9633;50.980;13.850;2022-12-24T00:59:12;11.00;99.90
19000;DHT22;9633;50.980;13.850;2022-12-24T01:00:45;10.90;99.90
19000;DHT22;9633;50.980;13.850;2022-12-24T01:02:18;11.00;99.90
19000;DHT22;9633;50.980;13.850;2022-12-24T01:03:53;11.10;99.90
19000;DHT22;9633;50.980;13.850;2022-12-24T01:05:48;11.00;99.90
19000;DHT22;9633;50.980;13.850;2022-12-24T01:07:22;11.10;99.90
19000;DHT22;9633;50.980;13.850;2022-12-24T01:08:54;11.20;99.90
19000;DHT22;9633;50.980;13.850;2022-12-24T01:10:27;11.30;99.90
19000;DHT22;9633;50.980;13.850;2022-12-24T01:11:59;11.20;99.90
19000;DHT22;9633;50.980;13.850;2022-12-24T01:13:33;11.10;99.90
19000;DHT22;9633;50.980;13.850;2022-12-24T01:15:06;11.10;99.90
19000;DHT22;9633;50.980;13.850;2022-12-24T01:16:39;11.20;99.90
19000;DHT22;9633;50.980;13.850;2022-12-24T01:18:12;11.30;99.90
19000;DHT22;9633;50.980;13.850;2022-12-24T01:19:46;11.30;99.90
19000;DHT22;9633;50.980;13.850;2022-12-24T01:21:19;11.30;99.90
19000;DHT22;9633;50.980;13.850;2022-12-24T01:22:52;11.40;99.90
19000;DHT22;9633;50.980;13.850;2022-12-24T01:24:25;11.40;99.90
19000;DHT22;9633;50.980;13.850;2022-12-24T01:25:59;11.40;99.90
19000;DHT22;9633;50.980;13.850;2022-12-24T01:27:32;11.30;99.90
19000;DHT22;9633;50.980;13.850;2022-12-24T01:29:05;11.30;99.90
19000;DHT22;9633;50.980;13.850;2022-12-24T01:30:40;11.20;99.90
19000;DHT22;9633;50.980;13.850;2022-12-24T01:32:13;11.30;99.90
19000;DHT22;9633;50.980;13.850;2022-12-24T01:33:47;11.20;99.90
19000;DHT22;9633;50.980;13.850;2022-12-24T01:35:22;11.30;99.90
19000;DHT22;9633;50.980;13.850;2022-12-24T01:36:55;11.20;99.90
19000;DHT22;9633;50.980;13.850;2022-12-24T01:38:28;11.30;99.90
19000;DHT22;9633;50.980;13.850;2022-12-24T01:40:00;11.40;99.90
19000;DHT22;9633;50.980;13.850;2022-12-24T01:41:47;11.40;99.90
19000;DHT22;9633;50.980;13.850;2022-12-24T01:43:37;11.40;99.90
19000;DHT22;9633;50.980;13.850;2022-12-24T01:45:42;11.40;99.90
19000;DHT22;9633;50.980;13.850;2022-12-24T01:47:18;11.40;99.90
19000;DHT22;9633;50.980;13.850;2022-12-24T01:48:54;11.40;99.90
19000;DHT22;9633;50.980;13.850;2022-12-24T01:50:28;11.40;99.90
19000;DHT22;9633;50.980;13.850;2022-12-24T01:52:04;11.30;99.90
19000;DHT22;9633;50.980;13.850;2022-12-24T01:53:41;11.20;99.90
19000;DHT22;9633;50.980;13.850;2022-12-24T01:55:16;11.20;99.90
19000;DHT22;9633;50.980;13.850;2022-12-24T01:56:56;11.10;99.90
19000;DHT22;9633;50.980;13.850;2022-12-24T01:58:31;11.10;99.90
19000;DHT22;9633;50.980;13.850;2022-12-24T02:00:13;11.20;99.90
19000;DHT22;9633;50.980;13.850;2022-12-24T02:01:47;11.20;99.90
19000;DHT22;9633;50.980;13.850;2022-12-24T02:03:21;11.20;99.90
19000;DHT22;9633;50.980;13.850;2022-12-24T02:04:57;11.20;99.90
19000;DHT22;9633;50.980;13.850;2022-12-24T02:06:35;11.10;99.90
19000;DHT22;9633;50.980;13.850;2022-12-24T02:08:07;11.10;99.90
19000;DHT22;9633;50.980;13.850;2022-12-24T02:09:40;11.00;99.90
19000;DHT22;9633;50.980;13.850;2022-12-24T02:11:15;11.10;99.90
19000;DHT22;9633;50.980;13.850;2022-12-24T02:12:56;11.00;99.90
19000;DHT22;9633;50.980;13.850;2022-12-24T02:14:29;11.00;99.90
19000;DHT22;9633;50.980;13.850;2022-12-24T02:16:09;10.90;99.90
19000;DHT22;9633;50.980;13.850;2022-12-24T02:17:53;10.90;99.90
19000;DHT22;9633;50.980;13.850;2022-12-24T02:20:11;10.90;99.90
19000;DHT22;9633;50.980;13.850;2022-12-24T02:21:56;10.90;99.90
19000;DHT22;9633;50.980;13.850;2022-12-24T02:23:46;10.80;99.90
19000;DHT22;9633;50.980;13.850;2022-12-24T02:25:37;10.80;99.90
19000;DHT22;9633;50.980;13.850;2022-12-24T02:27:18;10.70;99.90
19000;DHT22;9633;50.980;13.850;2022-12-24T02:29:11;10.80;99.90
19000;DHT22;9633;50.980;13.850;2022-12-24T02:30:51;10.90;99.90
19000;DHT22;9633;50.980;13.850;2022-12-24T02:32:29;10.90;99.90
19000;DHT22;9633;50.980;13.850;2022-12-24T02:34:08;11.00;99.90
19000;DHT22;9633;50.980;13.850;2022-12-24T02:35:51;11.10;99.90
19000;DHT22;9633;50.980;13.850;2022-12-24T02:37:28;11.20;99.90
19000;DHT22;9633;50.980;13.850;2022-12-24T02:39:05;11.20;99.90
19000;DHT22;9633;50.980;13.850;2022-12-24T02:40:44;11.30;99.90
19000;DHT22;9633;50.980;13.850;2022-12-24T02:42:22;11.30;99.90
19000;DHT22;9633;50.980;13.850;2022-12-24T02:43:56;11.20;99.90
19000;DHT22;9633;50.980;13.850;2022-12-24T02:45:30;11.30;99.90
19000;DHT22;9633;50.980;13.850;2022-12-24T02:47:05;11.20;99.90
19000;DHT22;9633;50.980;13.850;2022-12-24T02:48:40;11.20;99.90
19000;DHT22;9633;50.980;13.850;2022-12-24T02:50:15;11.20;99.90
19000;DHT22;9633;50.980;13.850;2022-12-24T02:51:47;11.10;99.90
19000;DHT22;9633;50.980;13.850;2022-12-24T02:53:20;11.00;99.90
19000;DHT22;9633;50.980;13.850;2022-12-24T02:54:53;11.00;99.90
19000;DHT22;9633;50.980;13.850;2022-12-24T02:58:32;10.90;99.90
19000;DHT22;9633;50.980;13.850;2022-12-24T03:00:12;10.90;99.90
19000;DHT22;9633;50.980;13.850;2022-12-24T03:01:51;10.90;99.90
19000;DHT22;9633;50.980;13.850;2022-12-24T03:03:37;10.90;99.90
19000;DHT22;9633;50.980;13.850;2022-12-24T03:05:19;10.90;99.90
19000;DHT22;9633;50.980;13.850;2022-12-24T03:07:00;11.00;99.90
19000;DHT22;9633;50.980;13.850;2022-12-24T03:08:43;10.90;99.90
19000;DHT22;9633;50.980;13.850;2022-12-24T03:10:20;10.90;99.90
19000;DHT22;9633;50.980;13.850;2022-12-24T03:11:59;10.80;99.90
19000;DHT22;9633;50.980;13.850;2022-12-24T03:13:34;10.80;99.90
19000;DHT22;9633;50.980;13.850;2022-12-24T03:15:11;10.80;99.90
19000;DHT22;9633;50.980;13.850;2022-12-24T03:16:45;10.80;99.90
19000;DHT22;9633;50.980;13.850;2022-12-24T03:18:20;10.80;99.90
19000;DHT22;9633;50.980;13.850;2022-12-24T03:19:55;10.80;99.90
19000;DHT22;9633;50.980;13.850;2022-12-24T03:21:31;10.80;99.90
19000;DHT22;9633;50.980;13.850;2022-12-24T03:23:05;10.70;99.90
19000;DHT22;9633;50.980;13.850;2022-12-24T03:24:37;10.70;99.90
19000;DHT22;9633;50.980;13.850;2022-12-24T03:26:13;10.70;99.90
19000;DHT22;9633;50.980;13.850;2022-12-24T03:27:47;10.80;99.90
19000;DHT22;9633;50.980;13.850;2022-12-24T03:29:21;10.80;99.90
19000;DHT22;9633;50.980;13.850;2022-12-24T03:30:54;10.70;99.90
19000;DHT22;9633;50.980;13.850;2022-12-24T03:32:28;10.80;99.90
19000;DHT22;9633;50.980;13.850;2022-12-24T03:34:02;10.90;99.90
19000;DHT22;9633;50.980;13.850;2022-12-24T03:35:36;10.80;99.90
19000;DHT22;9633;50.980;13.850;2022-12-24T03:37:09;10.90;99.90
19000;DHT22;9633;50.980;13.850;2022-12-24T03:38:42;10.90;99.90
19000;DHT22;9633;50.980;13.850;2022-12-24T03:40:16;10.80;99.90
19000;DHT22;9633;50.980;13.850;2022-12-24T03:41:49;10.70;99.90
19000;DHT22;9633;50.980;13.850;2022-12-24T03:43:21;10.80;99.90
19000;DHT22;9633;50.980;13.850;2022-12-24T03:44:54;10.80;99.90
19000;DHT22;9633;50.980;13.850;2022-12-24T03:46:27;10.70;99.90
19000;DHT22;9633;50.980;13.850;2022-12-24T03:48:01;10.70;99.90
19000;DHT22;9633;50.980;13.850;2022-12-24T03:49:34;10.70;99.90
19000;DHT22;9633;50.980;13.850;2022-12-24T03:51:16;10.60;99.90
19000;DHT22;9633;50.980;13.850;2022-12-24T03:52:49;10.70;99.90
19000;DHT22;9633;50.980;13.850;2022-12-24T03:54:23;10.70;99.90
19000;DHT22;9633;50.980;13.850;2022-12-24T03:55:56;10.70;99.90
19000;DHT22;9633;50.980;13.850;2022-12-24T03:57:29;10.70;99.90
19000;DHT22;9633;50.980;13.850;2022-12-24T03:59:02;10.70;99.90
19000;DHT22;9633;50.980;13.850;2022-12-24T04:00:36;10.70;99.90
19000;DHT22;9633;50.980;13.850;2022-12-24T04:02:09;10.70;99.90
19000;DHT22;9633;50.980;13.850;2022-12-24T04:03:43;10.80;99.90
19000;DHT22;9633;50.980;13.850;2022-12-24T04:05:17;10.80;99.90
19000;DHT22;9633;50.980;13.850;2022-12-24T04:06:52;10.80;99.90
19000;DHT22;9633;50.980;13.850;2022-12-24T04:08:24;10.80;99.90
19000;DHT22;9633;50.980;13.850;2022-12-24T04:09:57;10.80;99.90
19000;DHT22;9633;50.980;13.850;2022-12-24T04:11:31;10.90;99.90
19000;DHT22;9633;50.980;13.850;2022-12-24T04:13:04;10.90;99.90
19000;DHT22;9633;50.980;13.850;2022-12-24T04:14:37;10.90;99.90
19000;DHT22;9633;50.980;13.850;2022-12-24T04:16:11;10.90;99.90
19000;DHT22;9633;50.980;13.850;2022-12-24T04:17:45;10.90;99.90
19000;DHT22;9633;50.980;13.850;2022-12-24T04:19:18;10.90;99.90
19000;DHT22;9633;50.980;13.850;2022-12-24T04:20:51;11.00;99.90
19000;DHT22;9633;50.980;13.850;2022-12-24T04:22:25;11.00;99.90
19000;DHT22;9633;50.980;13.850;2022-12-24T04:23:59;11.00;99.90
19000;DHT22;9633;50.980;13.850;2022-12-24T04:25:32;11.10;99.90
19000;DHT22;9633;50.980;13.850;2022-12-24T04:27:04;11.10;99.90
19000;DHT22;9633;50.980;13.850;2022-12-24T04:28:38;11.00;99.90
19000;DHT22;9633;50.980;13.850;2022-12-24T04:30:11;11.00;99.90
19000;DHT22;9633;50.980;13.850;2022-12-24T04:31:44;11.10;99.90
19000;DHT22;9633;50.980;13.850;2022-12-24T04:33:18;11.10;99.90
19000;DHT22;9633;50.980;13.850;2022-12-24T04:34:50;11.10;99.90
19000;DHT22;9633;50.980;13.850;2022-12-24T04:36:23;11.10;99.90
19000;DHT22;9633;50.980;13.850;2022-12-24T04:37:57;11.10;99.90
19000;DHT22;9633;50.980;13.850;2022-12-24T04:39:31;11.20;99.90
19000;DHT22;9633;50.980;13.850;2022-12-24T04:41:06;11.20;99.90
19000;DHT22;9633;50.980;13.850;2022-12-24T04:42:39;11.10;99.90
19000;DHT22;9633;50.980;13.850;2022-12-24T04:44:12;11.10;99.90
19000;DHT22;9633;50.980;13.850;2022-12-24T04:45:45;11.20;99.90
19000;DHT22;9633;50.980;13.850;2022-12-24T04:47:17;11.20;99.90
19000;DHT22;9633;50.980;13.850;2022-12-24T04:48:52;11.20;99.90
19000;DHT22;9633;50.980;13.850;2022-12-24T04:50:24;11.20;99.90
19000;DHT22;9633;50.980;13.850;2022-12-24T04:51:57;11.30;99.90
19000;DHT22;9633;50.980;13.850;2022-12-24T04:53:33;11.20;99.90
19000;DHT22;9633;50.980;13.850;2022-12-24T04:55:06;11.20;99.90
19000;DHT22;9633;50.980;13.850;2022-12-24T04:56:39;11.20;99.90
19000;DHT22;9633;50.980;13.850;2022-12-24T04:58:13;11.30;99.90
19000;DHT22;9633;50.980;13.850;2022-12-24T04:59:45;11.30;99.90
19000;DHT22;9633;50.980;13.850;2022-12-24T05:01:19;11.20;99.90
19000;DHT22;9633;50.980;13.850;2022-12-24T05:02:54;11.20;99.90
19000;DHT22;9633;50.980;13.850;2022-12-24T05:04:26;11.20;99.90
19000;DHT22;9633;50.980;13.850;2022-12-24T05:06:02;11.00;99.90
19000;DHT22;9633;50.980;13.850;2022-12-24T05:07:34;11.10;99.90
19000;DHT22;9633;50.980;13.850;2022-12-24T05:09:10;10.90;99.90
19000;DHT22;9633;50.980;13.850;2022-12-24T05:10:44;10.90;99.90
19000;DHT22;9633;50.980;13.850;2022-12-24T05:12:26;11.00;99.90
19000;DHT22;9633;50.980;13.850;2022-12-24T05:13:59;11.00;99.90
19000;DHT22;9633;50.980;13.850;2022-12-24T05:15:32;11.00;99.90
19000;DHT22;9633;50.980;13.850;2022-12-24T05:17:04;10.90;99.90
19000;DHT22;9633;50.980;13.850;2022-12-24T05:18:38;10.80;99.90
19000;DHT22;9633;50.980;13.850;2022-12-24T05:20:10;10.80;99.90
19000;DHT22;9633;50.980;13.850;2022-12-24T05:21:43;10.60;99.90
19000;DHT22;9633;50.980;13.850;2022-12-24T05:23:37;10.70;99.90
19000;DHT22;9633;50.980;13.850;2022-12-24T05:25:32;10.60;99.90
19000;DHT22;9633;50.980;13.850;2022-12-24T05:27:24;10.60;99.90
19000;DHT22;9633;50.980;13.850;2022-12-24T05:28:59;10.60;99.90
19000;DHT22;9633;50.980;13.850;2022-12-24T05:30:32;10.60;99.90
19000;DHT22;9633;50.980;13.850;2022-12-24T05:32:05;10.60;99.90
19000;DHT22;9633;50.980;13.850;2022-12-24T05:33:38;10.70;99.90
19000;DHT22;9633;50.980;13.850;2022-12-24T05:35:10;10.70;99.90
19000;DHT22;9633;50.980;13.850;2022-12-24T05:36:44;10.70;99.90
19000;DHT22;9633;50.980;13.850;2022-12-24T05:38:17;10.60;99.90
19000;DHT22;9633;50.980;13.850;2022-12-24T05:39:51;10.60;99.90
19000;DHT22;9633;50.980;13.850;2022-12-24T05:41:25;10.60;99.90
19000;DHT22;9633;50.980;13.850;2022-12-24T05:42:58;10.50;99.90
19000;DHT22;9633;50.980;13.850;2022-12-24T05:44:31;10.50;99.90
19000;DHT22;9633;50.980;13.850;2022-12-24T05:46:06;10.50;99.90
19000;DHT22;9633;50.980;13.850;2022-12-24T05:47:38;10.40;99.90
19000;DHT22;9633;50.980;13.850;2022-12-24T05:49:14;10.40;99.90
19000;DHT22;9633;50.980;13.850;2022-12-24T05:50:47;10.30;99.90
19000;DHT22;9633;50.980;13.850;2022-12-24T05:52:20;10.30;99.90
19000;DHT22;9633;50.980;13.850;2022-12-24T05:53:53;10.30;99.90
19000;DHT22;9633;50.980;13.850;2022-12-24T05:55:26;10.30;99.90
19000;DHT22;9633;50.980;13.850;2022-12-24T05:56:59;10.30;99.90
19000;DHT22;9633;50.980;13.850;2022-12-24T05:58:32;10.30;99.90
19000;DHT22;9633;50.980;13.850;2022-12-24T06:00:06;10.30;99.90
19000;DHT22;9633;50.980;13.850;2022-12-24T06:01:43;10.30;99.90
19000;DHT22;9633;50.980;13.850;2022-12-24T06:03:18;10.20;99.90
19000;DHT22;9633;50.980;13.850;2022-12-24T06:04:51;10.20;99.90
19000;DHT22;9633;50.980;13.850;2022-12-24T06:06:26;10.30;99.90
19000;DHT22;9633;50.980;13.850;2022-12-24T06:07:59;10.30;99.90
19000;DHT22;9633;50.980;13.850;2022-12-24T06:09:32;10.40;99.90
19000;DHT22;9633;50.980;13.850;2022-12-24T06:11:07;10.30;99.90
19000;DHT22;9633;50.980;13.850;2022-12-24T06:12:42;10.20;99.90
19000;DHT22;9633;50.980;13.850;2022-12-24T06:14:15;10.10;99.90
19000;DHT22;9633;50.980;13.850;2022-12-24T06:15:48;10.10;99.90
19000;DHT22;9633;50.980;13.850;2022-12-24T06:17:20;10.10;99.90
19000;DHT22;9633;50.980;13.850;2022-12-24T06:18:54;10.00;99.90
19000;DHT22;9633;50.980;13.850;2022-12-24T06:20:26;10.00;99.90
19000;DHT22;9633;50.980;13.850;2022-12-24T06:21:59;10.10;99.90
19000;DHT22;9633;50.980;13.850;2022-12-24T06:23:34;10.00;99.90
19000;DHT22;9633;50.980;13.850;2022-12-24T06:25:07;10.00;99.90
19000;DHT22;9633;50.980;13.850;2022-12-24T06:26:40;10.00;99.90
19000;DHT22;9633;50.980;13.850;2022-12-24T06:28:15;9.90;99.90
19000;DHT22;9633;50.980;13.850;2022-12-24T06:29:48;9.90;99.90
19000;DHT22;9633;50.980;13.850;2022-12-24T06:31:22;9.90;99.90
19000;DHT22;9633;50.980;13.850;2022-12-24T06:32:55;9.90;99.90
19000;DHT22;9633;50.980;13.850;2022-12-24T06:34:27;9.90;99.90
19000;DHT22;9633;50.980;13.850;2022-12-24T06:36:01;9.80;99.90
19000;DHT22;9633;50.980;13.850;2022-12-24T06:37:33;9.80;99.90
19000;DHT22;9633;50.980;13.850;2022-12-24T06:39:06;9.90;99.90
19000;DHT22;9633;50.980;13.850;2022-12-24T06:40:40;9.80;99.90
19000;DHT22;9633;50.980;13.850;2022-12-24T06:42:14;9.80;99.90
19000;DHT22;9633;50.980;13.850;2022-12-24T06:43:50;9.80;99.90
19000;DHT22;9633;50.980;13.850;2022-12-24T06:45:22;9.90;99.90
19000;DHT22;9633;50.980;13.850;2022-12-24T06:46:56;9.90;99.90
19000;DHT22;9633;50.980;13.850;2022-12-24T06:48:29;9.90;99.90
19000;DHT22;9633;50.980;13.850;2022-12-24T06:50:02;9.90;99.90
19000;DHT22;9633;50.980;13.850;2022-12-24T06:51:36;9.90;99.90
19000;DHT22;9633;50.980;13.850;2022-12-24T06:53:09;9.90;99.90
19000;DHT22;9633;50.980;13.850;2022-12-24T06:54:41;9.90;99.90
19000;DHT22;9633;50.980;13.850;2022-12-24T06:56:15;9.90;99.90
19000;DHT22;9633;50.980;13.850;2022-12-24T06:57:47;10.00;99.90
19000;DHT22;9633;50.980;13.850;2022-12-24T06:59:21;10.10;99.90
19000;DHT22;9633;50.980;13.850;2022-12-24T07:00:55;10.10;99.90
19000;DHT22;9633;50.980;13.850;2022-12-24T07:02:28;10.10;99.90
19000;DHT22;9633;50.980;13.850;2022-12-24T07:04:01;10.10;99.90
19000;DHT22;9633;50.980;13.850;2022-12-24T07:05:34;10.20;99.90
19000;DHT22;9633;50.980;13.850;2022-12-24T07:07:06;10.30;99.90
19000;DHT22;9633;50.980;13.850;2022-12-24T07:08:39;10.40;99.90
19000;DHT22;9633;50.980;13.850;2022-12-24T07:10:14;10.40;99.90
19000;DHT22;9633;50.980;13.850;2022-12-24T07:11:47;10.50;99.90
19000;DHT22;9633;50.980;13.850;2022-12-24T07:13:21;10.40;99.90
19000;DHT22;9633;50.980;13.850;2022-12-24T07:14:54;10.50;99.90
19000;DHT22;9633;50.980;13.850;2022-12-24T07:16:27;10.50;99.90
19000;DHT22;9633;50.980;13.850;2022-12-24T07:18:05;10.40;99.90
19000;DHT22;9633;50.980;13.850;2022-12-24T07:19:38;10.50;99.90
19000;DHT22;9633;50.980;13.850;2022-12-24T07:21:11;10.50;99.90
19000;DHT22;9633;50.980;13.850;2022-12-24T07:22:43;10.50;99.90
19000;DHT22;9633;50.980;13.850;2022-12-24T07:24:16;10.60;99.90
19000;DHT22;9633;50.980;13.850;2022-12-24T07:25:50;10.60;99.90
19000;DHT22;9633;50.980;13.850;2022-12-24T07:27:24;10.50;99.90
19000;DHT22;9633;50.980;13.850;2022-12-24T07:28:57;10.50;99.90
19000;DHT22;9633;50.980;13.850;2022-12-24T07:30:31;10.50;99.90
19000;DHT22;9633;50.980;13.850;2022-12-24T07:32:04;10.50;99.90
19000;DHT22;9633;50.980;13.850;2022-12-24T07:33:37;10.50;99.90
19000;DHT22;9633;50.980;13.850;2022-12-24T07:35:11;10.50;99.90
19000;DHT22;9633;50.980;13.850;2022-12-24T07:36:43;10.50;99.90
19000;DHT22;9633;50.980;13.850;2022-12-24T07:38:16;10.50;99.90
19000;DHT22;9633;50.980;13.850;2022-12-24T07:39:49;10.40;99.90
19000;DHT22;9633;50.980;13.850;2022-12-24T07:41:22;10.30;99.90
19000;DHT22;9633;50.980;13.850;2022-12-24T07:42:55;10.40;99.90
19000;DHT22;9633;50.980;13.850;2022-12-24T07:44:27;10.40;99.90
19000;DHT22;9633;50.980;13.850;2022-12-24T07:46:03;10.50;99.90
19000;DHT22;9633;50.980;13.850;2022-12-24T07:47:36;10.60;99.90
19000;DHT22;9633;50.980;13.850;2022-12-24T07:49:09;10.60;99.90
19000;DHT22;9633;50.980;13.850;2022-12-24T07:50:42;10.50;99.90
19000;DHT22;9633;50.980;13.850;2022-12-24T07:52:15;10.40;99.90
19000;DHT22;9633;50.980;13.850;2022-12-24T07:53:49;10.40;99.90
19000;DHT22;9633;50.980;13.850;2022-12-24T07:55:22;10.40;99.90
19000;DHT22;9633;50.980;13.850;2022-12-24T07:56:55;10.40;99.90
19000;DHT22;9633;50.980;13.850;2022-12-24T07:58:28;10.50;99.90
19000;DHT22;9633;50.980;13.850;2022-12-24T08:00:01;10.50;99.90
19000;DHT22;9633;50.980;13.850;2022-12-24T08:01:43;10.50;99.90
19000;DHT22;9633;50.980;13.850;2022-12-24T08:03:19;10.50;99.90
19000;DHT22;9633;50.980;13.850;2022-12-24T08:04:51;10.50;99.90
19000;DHT22;9633;50.980;13.850;2022-12-24T08:06:24;10.50;99.90
19000;DHT22;9633;50.980;13.850;2022-12-24T08:07:57;10.40;99.90
19000;DHT22;9633;50.980;13.850;2022-12-24T08:09:30;10.40;99.90
19000;DHT22;9633;50.980;13.850;2022-12-24T08:11:05;10.40;99.90
19000;DHT22;9633;50.980;13.850;2022-12-24T08:12:38;10.50;99.90
19000;DHT22;9633;50.980;13.850;2022-12-24T08:14:11;10.40;99.90
19000;DHT22;9633;50.980;13.850;2022-12-24T08:15:44;10.40;99.90
19000;DHT22;9633;50.980;13.850;2022-12-24T08:17:19;10.40;99.90
19000;DHT22;9633;50.980;13.850;2022-12-24T08:18:57;10.40;99.90
19000;DHT22;9633;50.980;13.850;2022-12-24T08:20:30;10.40;99.90
19000;DHT22;9633;50.980;13.850;2022-12-24T08:22:04;10.40;99.90
19000;DHT22;9633;50.980;13.850;2022-12-24T08:23:37;10.50;99.90
19000;DHT22;9633;50.980;13.850;2022-12-24T08:25:10;10.50;99.90
19000;DHT22;9633;50.980;13.850;2022-12-24T08:26:43;10.50;99.90
19000;DHT22;9633;50.980;13.850;2022-12-24T08:28:18;10.50;99.90
19000;DHT22;9633;50.980;13.850;2022-12-24T08:29:51;10.40;99.90
19000;DHT22;9633;50.980;13.850;2022-12-24T08:31:25;10.50;99.90
19000;DHT22;9633;50.980;13.850;2022-12-24T08:32:59;10.50;99.90
19000;DHT22;9633;50.980;13.850;2022-12-24T08:34:33;10.50;99.90
19000;DHT22;9633;50.980;13.850;2022-12-24T08:36:07;10.60;99.90
19000;DHT22;9633;50.980;13.850;2022-12-24T08:37:40;10.60;99.90
19000;DHT22;9633;50.980;13.850;2022-12-24T08:39:13;10.50;99.90
19000;DHT22;9633;50.980;13.850;2022-12-24T08:40:47;10.50;99.90
19000;DHT22;9633;50.980;13.850;2022-12-24T08:42:21;10.60;99.90
19000;DHT22;9633;50.980;13.850;2022-12-24T08:43:53;10.60;99.90
19000;DHT22;9633;50.980;13.850;2022-12-24T08:45:26;10.60;99.90
19000;DHT22;9633;50.980;13.850;2022-12-24T08:46:59;10.60;99.90
19000;DHT22;9633;50.980;13.850;2022-12-24T08:48:33;10.60;99.90
19000;DHT22;9633;50.980;13.850;2022-12-24T08:50:07;10.60;99.90
19000;DHT22;9633;50.980;13.850;2022-12-24T08:51:40;10.60;99.90
19000;DHT22;9633;50.980;13.850;2022-12-24T08:53:13;10.60;99.90
19000;DHT22;9633;50.980;13.850;2022-12-24T08:54:47;10.50;99.90
19000;DHT22;9633;50.980;13.850;2022-12-24T08:56:19;10.50;99.90
19000;DHT22;9633;50.980;13.850;2022-12-24T08:57:52;10.50;99.90
19000;DHT22;9633;50.980;13.850;2022-12-24T08:59:26;10.60;99.90
19000;DHT22;9633;50.980;13.850;2022-12-24T09:01:00;10.60;99.90
19000;DHT22;9633;50.980;13.850;2022-12-24T09:02:34;10.60;99.90
19000;DHT22;9633;50.980;13.850;2022-12-24T09:04:08;10.60;99.90
19000;DHT22;9633;50.980;13.850;2022-12-24T09:05:42;10.70;99.90
19000;DHT22;9633;50.980;13.850;2022-12-24T09:07:15;10.70;99.90
19000;DHT22;9633;50.980;13.850;2022-12-24T09:08:48;10.70;99.90
19000;DHT22;9633;50.980;13.850;2022-12-24T09:10:22;10.80;99.90
19000;DHT22;9633;50.980;13.850;2022-12-24T09:11:55;10.80;99.90
19000;DHT22;9633;50.980;13.850;2022-12-24T09:13:28;10.90;99.90
19000;DHT22;9633;50.980;13.850;2022-12-24T09:15:01;10.90;99.90
19000;DHT22;9633;50.980;13.850;2022-12-24T09:16:35;11.00;99.90
19000;DHT22;9633;50.980;13.850;2022-12-24T09:18:08;11.00;99.90
19000;DHT22;9633;50.980;13.850;2022-12-24T09:19:43;11.00;99.90
19000;DHT22;9633;50.980;13.850;2022-12-24T09:21:17;11.10;99.90
19000;DHT22;9633;50.980;13.850;2022-12-24T09:22:50;11.20;99.90
19000;DHT22;9633;50.980;13.850;2022-12-24T09:24:24;11.30;99.90
19000;DHT22;9633;50.980;13.850;2022-12-24T09:25:57;11.30;99.90
19000;DHT22;9633;50.980;13.850;2022-12-24T09:27:30;11.40;99.90
19000;DHT22;9633;50.980;13.850;2022-12-24T09:29:03;11.40;99.90
19000;DHT22;9633;50.980;13.850;2022-12-24T09:30:36;11.40;99.90
19000;DHT22;9633;50.980;13.850;2022-12-24T09:32:10;11.60;99.90
19000;DHT22;9633;50.980;13.850;2022-12-24T09:33:44;11.60;99.90
19000;DHT22;9633;50.980;13.850;2022-12-24T09:35:19;11.70;99.90
19000;DHT22;9633;50.980;13.850;2022-12-24T09:36:52;11.90;99.90
19000;DHT22;9633;50.980;13.850;2022-12-24T09:38:25;12.10;99.90
19000;DHT22;9633;50.980;13.850;2022-12-24T09:39:58;12.40;99.90
19000;DHT22;9633;50.980;13.850;2022-12-24T09:41:40;12.40;99.90
19000;DHT22;9633;50.980;13.850;2022-12-24T09:43:17;12.50;99.90
19000;DHT22;9633;50.980;13.850;2022-12-24T09:44:53;12.50;99.90
19000;DHT22;9633;50.980;13.850;2022-12-24T09:46:32;12.80;99.90
19000;DHT22;9633;50.980;13.850;2022-12-24T09:48:12;12.70;99.90
19000;DHT22;9633;50.980;13.850;2022-12-24T09:49:50;12.80;99.90
19000;DHT22;9633;50.980;13.850;2022-12-24T09:51:30;12.70;99.90
19000;DHT22;9633;50.980;13.850;2022-12-24T09:53:09;12.50;99.90
19000;DHT22;9633;50.980;13.850;2022-12-24T09:54:47;12.50;99.90
19000;DHT22;9633;50.980;13.850;2022-12-24T09:56:25;12.50;99.90
19000;DHT22;9633;50.980;13.850;2022-12-24T09:58:01;12.40;99.90
19000;DHT22;9633;50.980;13.850;2022-12-24T09:59:41;12.50;99.90
19000;DHT22;9633;50.980;13.850;2022-12-24T10:01:15;12.90;99.90
19000;DHT22;9633;50.980;13.850;2022-12-24T10:02:49;12.50;99.90